Time;durP1;ratioP1;P1;durP2;ratioP2;P2;SDS_P1;SDS_P2;PMS_P1;PMS_P2;Temp;Humidity;BMP_temperature;BMP_pressure;BME280_temperature;BME280_humidity;BME280_pressure;Samples;Min_cycle;Max_cycle;Signal;HPM_P1;HPM_P2
2022/04/02 00:01:39;;;;;;;4.00;2.05;;;;;;;1.53;57.44;98452.00;4934098;29;20426;-64
2022/04/02 00:04:08;;;;;;;4.63;2.50;;;;;;;1.56;57.87;98459.59;4935010;29;20075;-65
2022/04/02 00:06:36;;;;;;;4.03;2.15;;;;;;;1.57;57.69;98453.00;4934140;29;20504;-63
2022/04/02 00:09:04;;;;;;;4.78;2.08;;;;;;;1.63;57.55;98451.00;4935072;29;20051;-65
2022/04/02 00:11:31;;;;;;;4.22;2.30;;;;;;;1.62;57.23;98450.19;4934557;29;20059;-65
2022/04/02 00:13:58;;;;;;;3.92;2.10;;;;;;;1.64;57.07;98444.41;4935250;29;20094;-63
2022/04/02 00:16:25;;;;;;;5.13;2.55;;;;;;;1.59;57.45;98434.34;4934079;29;20534;-64
2022/04/02 00:18:52;;;;;;;3.33;1.75;;;;;;;1.63;57.17;98435.34;4932311;29;20048;-62
2022/04/02 00:21:19;;;;;;;3.03;2.05;;;;;;;1.56;57.71;98440.44;4934375;29;20051;-62
2022/04/02 00:23:47;;;;;;;3.92;1.90;;;;;;;1.57;57.48;98435.78;4935223;29;20059;-62
2022/04/02 00:26:20;;;;;;;4.95;2.22;;;;;;;1.55;57.43;98444.28;4934467;29;20562;-62
2022/04/02 00:28:49;;;;;;;3.72;1.92;;;;;;;1.48;57.66;98435.63;4941548;29;20060;-62
2022/04/02 00:31:18;;;;;;;6.55;1.90;;;;;;;1.46;58.20;98435.13;4934428;29;20115;-64
2022/04/02 00:33:47;;;;;;;4.95;2.35;;;;;;;1.48;57.64;98430.16;4934949;29;20044;-63
2022/04/02 00:36:16;;;;;;;4.43;2.17;;;;;;;1.48;57.71;98415.66;4940725;28;20067;-63
2022/04/02 00:38:43;;;;;;;5.05;2.25;;;;;;;1.47;57.93;98409.34;4934638;29;20129;-63
2022/04/02 00:41:12;;;;;;;4.07;2.05;;;;;;;1.44;57.93;98407.22;4934442;29;20086;-64
2022/04/02 00:43:53;;;;;;;4.72;2.45;;;;;;;1.39;57.76;98407.28;4933657;29;20059;-64
2022/04/02 00:46:20;;;;;;;3.00;1.95;;;;;;;1.38;57.82;98388.41;4934575;29;20063;-64
2022/04/02 00:48:49;;;;;;;6.53;2.25;;;;;;;1.37;57.65;98404.06;4934151;29;20487;-64
2022/04/02 00:51:18;;;;;;;1.52;1.15;;;;;;;1.25;58.05;98390.00;4934525;29;20051;-63
2022/04/02 00:53:48;;;;;;;3.67;1.90;;;;;;;1.14;58.51;98391.31;4933395;29;20070;-63
2022/04/02 00:56:16;;;;;;;8.43;2.65;;;;;;;1.10;58.77;98403.97;4934494;29;20052;-63
2022/04/02 00:58:44;;;;;;;6.78;2.60;;;;;;;1.18;58.67;98395.06;4933412;29;20503;-63
2022/04/02 01:01:11;;;;;;;4.95;2.90;;;;;;;1.20;58.06;98381.06;4934376;29;20048;-63
2022/04/02 01:03:39;;;;;;;4.38;2.65;;;;;;;1.12;58.56;98377.09;4933232;29;20083;-63
2022/04/02 01:06:09;;;;;;;5.07;2.45;;;;;;;1.05;58.92;98376.69;4934113;29;20055;-64
2022/04/02 01:08:37;;;;;;;;;;;;;;;0.97;58.74;98371.88;4934578;29;20070;-64
2022/04/02 01:11:04;;;;;;;5.97;2.63;;;;;;;0.93;58.85;98375.50;4938241;29;19926;-63
2022/04/02 01:13:32;;;;;;;5.15;2.85;;;;;;;0.95;59.08;98363.13;4937373;29;20138;-63
2022/04/02 01:15:59;;;;;;;3.88;2.70;;;;;;;0.89;59.22;98364.34;4946168;29;20070;-64
2022/04/02 01:18:26;;;;;;;5.18;2.50;;;;;;;0.93;58.68;98353.63;4937339;29;20055;-65
2022/04/02 01:20:54;;;;;;;6.15;2.72;;;;;;;0.96;59.09;98351.09;4938027;29;20099;-64
2022/04/02 01:23:28;;;;;;;4.82;2.70;;;;;;;0.93;58.90;98364.56;4938398;29;20055;-64
2022/04/02 01:26:01;;;;;;;7.60;2.97;;;;;;;0.87;59.41;98347.41;4937980;29;20502;-64
2022/04/02 01:28:34;;;;;;;4.78;2.63;;;;;;;0.88;59.21;98361.91;4937054;29;20676;-64
2022/04/02 01:31:06;;;;;;;4.80;2.30;;;;;;;0.92;59.24;98352.00;4937864;29;20051;-63
2022/04/02 01:33:35;;;;;;;3.95;2.13;;;;;;;0.92;59.52;98357.47;4936974;29;20059;-64
2022/04/02 01:36:06;;;;;;;5.03;2.40;;;;;;;0.93;59.50;98342.66;4937498;29;20146;-65
2022/04/02 01:38:33;;;;;;;7.32;2.88;;;;;;;0.95;59.53;98349.44;4936946;29;20048;-64
2022/04/02 01:41:00;;;;;;;5.65;2.38;;;;;;;0.99;59.14;98342.28;4932240;29;20075;-64
2022/04/02 01:43:27;;;;;;;5.72;2.42;;;;;;;0.94;59.67;98336.88;4933893;29;20052;-64
2022/04/02 01:45:57;;;;;;;4.63;2.55;;;;;;;0.73;60.40;98345.72;4937587;29;20051;-64
2022/04/02 01:48:25;;;;;;;5.30;2.95;;;;;;;0.70;60.68;98336.19;4936487;29;20082;-63
2022/04/02 01:50:53;;;;;;;4.38;2.50;;;;;;;0.70;60.92;98349.06;4937502;29;20059;-64
2022/04/02 01:53:21;;;;;;;4.03;2.35;;;;;;;0.75;60.59;98338.88;4936456;29;20119;-64
2022/04/02 01:55:48;;;;;;;4.22;2.80;;;;;;;0.83;60.15;98335.44;4934206;29;20404;-64
2022/04/02 01:58:16;;;;;;;4.57;2.20;;;;;;;0.88;59.77;98324.41;4936667;29;20517;-63
2022/04/02 02:00:44;;;;;;;5.25;2.75;;;;;;;0.87;60.24;98327.44;4937501;29;20051;-63
2022/04/02 02:03:12;;;;;;;4.63;2.35;;;;;;;0.82;60.09;98322.88;4937899;29;20079;-64
2022/04/02 02:05:40;;;;;;;3.88;2.53;;;;;;;0.79;60.54;98328.13;4937674;29;20448;-64
2022/04/02 02:08:08;;;;;;;6.47;2.83;;;;;;;0.72;60.43;98322.22;4936447;29;20103;-63
2022/04/02 02:10:35;;;;;;;6.15;3.05;;;;;;;0.69;60.66;98329.09;4936794;29;20061;-64
2022/04/02 02:13:02;;;;;;;6.28;3.00;;;;;;;0.74;60.71;98318.06;4937388;29;20055;-63
2022/04/02 02:15:29;;;;;;;6.32;2.63;;;;;;;0.74;60.23;98323.53;4935889;29;20549;-63
2022/04/02 02:17:56;;;;;;;4.03;2.55;;;;;;;0.79;60.28;98315.25;4936838;29;20131;-63
2022/04/02 02:20:23;;;;;;;4.03;2.55;;;;;;;0.82;60.06;98313.81;4935277;29;20064;-63
2022/04/02 02:22:51;;;;;;;5.88;2.55;;;;;;;0.74;60.13;98317.28;4935570;29;20083;-63
2022/04/02 02:25:18;;;;;;;9.30;2.70;;;;;;;0.71;60.27;98315.13;4936287;29;20060;-64
2022/04/02 02:27:47;;;;;;;6.20;2.40;;;;;;;0.63;60.59;98311.16;4936880;29;20464;-64
2022/04/02 02:30:16;;;;;;;3.22;2.17;;;;;;;0.65;60.76;98314.38;4934437;29;20474;-63
2022/04/02 02:32:45;;;;;;;4.85;2.63;;;;;;;0.69;60.24;98320.06;4936925;29;20109;-63
2022/04/02 02:38:08;;;;;;;6.15;2.28;;;;;;;0.65;60.25;98325.31;4936827;29;20060;-63
2022/04/02 02:40:37;;;;;;;5.15;2.85;;;;;;;0.69;59.97;98331.84;4935692;29;20532;-64
2022/04/02 02:43:05;;;;;;;4.28;2.55;;;;;;;0.73;60.04;98332.88;4936619;29;20047;-63
2022/04/02 02:45:33;;;;;;;4.55;2.10;;;;;;;0.74;59.79;98328.22;4936153;29;20047;-63
2022/04/02 02:48:01;;;;;;;5.72;2.13;;;;;;;0.72;60.51;98335.91;4937344;29;20043;-62
2022/04/02 02:50:33;;;;;;;4.50;2.50;;;;;;;0.72;60.17;98336.72;4939106;29;20111;-64
2022/04/02 02:53:01;;;;;;;4.93;2.63;;;;;;;0.76;60.23;98340.47;4936279;29;20063;-64
2022/04/02 02:55:28;;;;;;;3.72;2.45;;;;;;;0.72;60.35;98344.94;4935837;29;20114;-62
2022/04/02 02:57:56;;;;;;;4.38;2.47;;;;;;;0.63;60.11;98345.91;4935680;29;20138;-61
2022/04/02 03:00:23;;;;;;;4.47;2.45;;;;;;;0.53;60.39;98337.84;4935348;29;20147;-62
2022/04/02 03:02:50;;;;;;;5.75;2.60;;;;;;;0.54;60.85;98334.81;4936373;29;20051;-62
2022/04/02 03:05:18;;;;;;;5.85;2.50;;;;;;;0.52;61.04;98334.31;4935108;29;20099;-62
2022/04/02 03:07:50;;;;;;;5.13;2.50;;;;;;;0.60;60.56;98328.16;4936088;29;20052;-62
2022/04/02 03:10:19;;;;;;;4.55;2.67;;;;;;;0.60;60.55;98325.44;4935102;29;20086;-62
2022/04/02 03:12:47;;;;;;;5.32;2.45;;;;;;;0.43;61.32;98327.88;4936058;29;20117;-62
2022/04/02 03:15:21;;;;;;;6.75;2.83;;;;;;;0.34;61.81;98329.66;4935494;29;20111;-61
2022/04/02 03:17:49;;;;;;;3.95;2.47;;;;;;;0.27;62.42;98323.75;4936362;29;20066;-64
2022/04/02 03:20:18;;;;;;;6.97;3.15;;;;;;;0.24;62.48;98318.06;4935466;29;20097;-64
2022/04/02 03:22:47;;;;;;;5.82;2.90;;;;;;;0.22;62.71;98312.88;4932473;29;20072;-64
2022/04/02 03:25:19;;;;;;;5.38;2.97;;;;;;;0.21;62.74;98316.72;4930531;29;20047;-64
2022/04/02 03:27:47;;;;;;;7.35;2.80;;;;;;;0.22;63.19;98314.78;4935586;29;20055;-64
2022/04/02 03:30:17;;;;;;;4.80;2.55;;;;;;;0.29;62.64;98310.56;4936025;29;20111;-63
2022/04/02 03:32:46;;;;;;;4.90;2.55;;;;;;;0.25;62.96;98315.03;4932689;29;20047;-63
2022/04/02 03:35:14;;;;;;;7.57;2.65;;;;;;;0.18;63.03;98313.75;4935724;29;20059;-64
2022/04/02 03:37:43;;;;;;;6.25;2.67;;;;;;;0.15;63.23;98315.19;4943214;29;20052;-64
2022/04/02 03:40:15;;;;;;;6.30;2.60;;;;;;;0.14;63.77;98313.53;4935622;29;20110;-64
2022/04/02 03:42:44;;;;;;;4.43;2.72;;;;;;;0.13;63.56;98319.28;4933980;29;20471;-64
2022/04/02 03:45:15;;;;;;;3.97;2.40;;;;;;;0.13;63.46;98317.38;4934649;29;20545;-63
2022/04/02 03:47:43;;;;;;;4.63;2.75;;;;;;;0.23;63.19;98313.69;4934718;29;20054;-64
2022/04/02 03:50:10;;;;;;;4.35;2.70;;;;;;;0.33;62.71;98317.09;4935277;29;20051;-64
2022/04/02 03:52:37;;;;;;;5.63;2.95;;;;;;;0.30;63.13;98312.22;4934396;29;20143;-64
2022/04/02 03:55:05;;;;;;;4.32;2.10;;;;;;;0.28;62.87;98308.13;4935461;29;20135;-64
2022/04/02 03:57:34;;;;;;;5.15;2.97;;;;;;;0.23;62.88;98310.97;4934108;29;20475;-64
2022/04/02 04:00:05;;;;;;;5.53;2.80;;;;;;;0.26;62.95;98319.38;4935258;29;20055;-64
2022/04/02 04:02:32;;;;;;;3.55;2.38;;;;;;;0.32;62.88;98318.19;4934007;29;20051;-63
2022/04/02 04:05:00;;;;;;;4.15;2.53;;;;;;;0.31;62.96;98307.53;4935198;29;20079;-63
2022/04/02 04:07:27;;;;;;;5.65;2.80;;;;;;;0.34;62.77;98305.03;4934470;29;20079;-64
2022/04/02 04:09:54;;;;;;;4.47;2.60;;;;;;;0.37;62.79;98309.09;4935116;29;20060;-64
2022/04/02 04:12:21;;;;;;;7.75;3.13;;;;;;;0.36;62.80;98305.56;4934024;29;20056;-64
2022/04/02 04:14:48;;;;;;;5.03;2.72;;;;;;;0.32;62.51;98303.72;4933775;29;20107;-64
2022/04/02 04:17:15;;;;;;;5.40;3.22;;;;;;;0.28;62.79;98308.13;4934037;29;20114;-63
2022/04/02 04:19:42;;;;;;;6.97;2.60;;;;;;;0.29;63.25;98304.31;4930658;29;20083;-64
2022/04/02 04:22:10;;;;;;;4.90;2.60;;;;;;;0.28;63.34;98302.66;4933755;29;20515;-64
2022/04/02 04:24:37;;;;;;;9.85;3.08;;;;;;;0.22;63.20;98303.84;4935162;29;20499;-64
2022/04/02 04:27:04;;;;;;;4.53;2.17;;;;;;;0.10;63.73;98295.28;4934611;29;20052;-64
2022/04/02 04:29:31;;;;;;;6.95;3.13;;;;;;;-0.14;64.75;98300.81;4934418;29;20055;-64
2022/04/02 04:31:58;;;;;;;6.63;2.92;;;;;;;-0.29;65.14;98320.16;4933729;29;20059;-64
2022/04/02 04:34:27;;;;;;;5.72;2.95;;;;;;;-0.37;65.56;98307.13;4933063;29;20055;-63
2022/04/02 04:36:54;;;;;;;5.38;2.88;;;;;;;-0.31;65.72;98300.50;4934464;29;20066;-64
2022/04/02 04:39:21;;;;;;;6.35;3.00;;;;;;;-0.36;66.33;98304.09;4933804;29;20172;-64
2022/04/02 04:41:48;;;;;;;7.55;3.17;;;;;;;-0.39;66.53;98303.88;4934612;29;20082;-64
2022/04/02 04:44:15;;;;;;;5.55;2.70;;;;;;;-0.35;66.47;98294.00;4933260;29;20134;-63
2022/04/02 04:46:42;;;;;;;4.10;2.83;;;;;;;-0.34;66.95;98298.34;4934414;29;20047;-64
2022/04/02 04:49:10;;;;;;;6.80;3.22;;;;;;;-0.34;66.78;98303.81;4933852;29;20095;-64
2022/04/02 04:51:37;;;;;;;6.25;3.42;;;;;;;-0.29;66.69;98292.81;4934061;29;20089;-63
2022/04/02 04:54:04;;;;;;;3.97;2.60;;;;;;;-0.17;66.61;98295.94;4933541;29;20043;-64
2022/04/02 04:56:31;;;;;;;6.50;3.10;;;;;;;-0.07;66.16;98290.31;4934372;29;20645;-64
2022/04/02 04:58:58;;;;;;;7.75;3.42;;;;;;;-0.10;66.05;98272.59;4933573;29;20130;-65
2022/04/02 05:01:25;;;;;;;7.05;3.40;;;;;;;0.10;66.09;98285.16;4934139;29;20062;-63
2022/04/02 05:03:52;;;;;;;6.65;3.60;;;;;;;0.21;65.98;98286.66;4934093;29;20086;-64
2022/04/02 05:06:20;;;;;;;4.70;3.20;;;;;;;0.11;66.41;98280.53;4933942;29;20138;-64
2022/04/02 05:08:47;;;;;;;6.32;3.13;;;;;;;-0.04;66.86;98289.75;4934517;29;20055;-64
2022/04/02 05:11:14;;;;;;;5.63;3.53;;;;;;;-0.04;66.58;98295.22;4933290;29;20099;-64
2022/04/02 05:13:41;;;;;;;5.13;3.08;;;;;;;-0.04;66.54;98282.38;4934322;29;20138;-64
2022/04/02 05:16:08;;;;;;;7.03;3.53;;;;;;;0.03;66.69;98281.19;4933252;29;20058;-64
2022/04/02 05:18:35;;;;;;;5.40;3.30;;;;;;;0.06;66.73;98266.91;4939292;29;20384;-64
2022/04/02 05:21:03;;;;;;;5.40;3.10;;;;;;;-0.02;66.57;98279.34;4935840;28;20058;-64
2022/04/02 05:23:30;;;;;;;5.95;2.75;;;;;;;-0.13;67.31;98281.41;4932870;29;20059;-64
2022/04/02 05:25:58;;;;;;;6.93;3.50;;;;;;;-0.11;67.67;98278.38;4932892;29;20056;-64
2022/04/02 05:28:25;;;;;;;8.15;3.78;;;;;;;-0.05;67.56;98271.72;4934110;29;20095;-63
2022/04/02 05:30:52;;;;;;;5.22;3.15;;;;;;;-0.18;68.06;98273.25;4933183;29;20060;-64
2022/04/02 05:33:19;;;;;;;7.88;4.15;;;;;;;-0.16;68.34;98264.75;4931600;29;20060;-65
2022/04/02 05:36:06;;;;;;;6.25;3.30;;;;;;;-0.17;68.59;98268.63;4933118;29;20052;-62
2022/04/02 05:38:33;;;;;;;7.85;3.20;;;;;;;-0.15;68.38;98271.84;4933554;29;20134;-61
2022/04/02 05:41:00;;;;;;;7.78;3.38;;;;;;;-0.15;68.58;98260.91;4931713;29;20079;-61
2022/04/02 05:43:28;;;;;;;7.78;4.75;;;;;;;-0.13;68.67;98253.25;4934042;29;20107;-61
2022/04/02 05:45:55;;;;;;;5.35;3.20;;;;;;;-0.08;68.32;98258.66;4933270;29;20055;-62
2022/04/02 05:48:24;;;;;;;8.93;4.10;;;;;;;0.03;68.15;98252.72;4934245;29;20106;-62
2022/04/02 05:50:51;;;;;;;5.85;3.00;;;;;;;0.15;67.63;98260.50;4932986;29;20047;-64
2022/04/02 05:53:18;;;;;;;7.35;3.80;;;;;;;0.22;67.65;98254.63;4933528;29;20086;-63
2022/04/02 05:55:49;;;;;;;5.95;3.40;;;;;;;0.08;67.60;98251.03;4933835;29;20060;-63
2022/04/02 05:58:16;;;;;;;;;;;;;;;-0.08;68.30;98255.91;4937752;29;20139;-63
2022/04/02 06:00:43;;;;;;;5.95;3.13;;;;;;;-0.11;68.83;98240.09;4932266;29;20030;-62
2022/04/02 06:03:15;;;;;;;5.63;3.20;;;;;;;-0.15;68.55;98241.78;4937221;29;20066;-64
2022/04/02 06:05:43;;;;;;;7.30;3.35;;;;;;;-0.06;68.69;98240.00;4937006;29;20170;-63
2022/04/02 06:08:10;;;;;;;6.40;3.60;;;;;;;0.12;68.13;98244.69;4936158;29;20682;-63
2022/04/02 06:10:37;;;;;;;6.60;3.65;;;;;;;0.24;67.93;98231.38;4937326;29;20048;-64
2022/04/02 06:13:05;;;;;;;6.65;3.25;;;;;;;0.31;67.93;98220.84;4936422;29;20056;-65
2022/04/02 06:15:32;;;;;;;9.05;3.53;;;;;;;0.38;67.80;98226.75;4929662;29;20055;-63
2022/04/02 06:17:59;;;;;;;6.63;2.50;;;;;;;0.50;67.10;98218.88;4936294;29;20070;-65
2022/04/02 06:20:26;;;;;;;4.40;2.47;;;;;;;0.35;67.38;98221.09;4937091;29;20055;-64
2022/04/02 06:22:53;;;;;;;6.80;4.05;;;;;;;0.27;67.60;98225.31;4936755;29;20087;-65
2022/04/02 06:25:20;;;;;;;4.80;2.88;;;;;;;0.35;67.39;98219.13;4936615;29;20058;-64
2022/04/02 06:27:48;;;;;;;6.22;3.17;;;;;;;0.34;67.42;98223.00;4935714;29;20051;-63
2022/04/02 06:30:19;;;;;;;8.40;3.90;;;;;;;0.44;66.98;98222.81;4936611;29;20099;-63
2022/04/02 06:32:53;;;;;;;5.82;2.90;;;;;;;0.45;67.30;98221.72;4936301;29;20060;-64
2022/04/02 06:35:20;;;;;;;6.25;3.20;;;;;;;0.53;66.60;98212.81;4936846;29;20043;-63
2022/04/02 06:37:48;;;;;;;9.52;3.20;;;;;;;0.57;66.60;98210.28;4935937;29;20062;-62
2022/04/02 06:40:19;;;;;;;7.22;3.75;;;;;;;0.54;66.30;98206.25;4936983;29;20079;-64
2022/04/02 06:42:46;;;;;;;8.95;4.15;;;;;;;0.46;66.66;98195.97;4936059;29;20056;-64
2022/04/02 06:45:14;;;;;;;10.52;4.03;;;;;;;0.49;66.58;98178.16;4938987;29;20086;-65
2022/04/02 06:47:41;;;;;;;8.10;3.38;;;;;;;0.49;66.94;98178.16;4940447;28;20055;-64
2022/04/02 06:50:13;;;;;;;9.55;3.70;;;;;;;0.45;67.54;98172.50;4936481;29;20103;-64
2022/04/02 06:52:42;;;;;;;5.45;2.85;;;;;;;0.54;67.07;98159.75;4935259;29;20071;-64
2022/04/02 06:55:13;;;;;;;5.38;3.22;;;;;;;0.65;67.11;98149.41;4944412;29;20110;-64
2022/04/02 06:57:42;;;;;;;6.47;3.13;;;;;;;0.41;67.39;98144.09;4935711;29;20062;-64
2022/04/02 07:00:11;;;;;;;6.22;3.50;;;;;;;0.25;68.05;98140.03;4936451;29;20080;-64
2022/04/02 07:02:38;;;;;;;5.65;3.45;;;;;;;0.26;68.63;98141.63;4935942;29;20051;-63
2022/04/02 07:05:06;;;;;;;6.32;3.55;;;;;;;0.29;68.51;98151.97;4936122;29;20197;-64
2022/04/02 07:07:33;;;;;;;8.07;3.75;;;;;;;0.38;68.02;98128.28;4935777;29;20052;-64
2022/04/02 07:10:03;;;;;;;6.72;3.78;;;;;;;0.44;67.99;98121.59;4935303;29;20103;-63
2022/04/02 07:12:31;;;;;;;6.27;3.87;;;;;;;0.66;67.92;98124.50;4935895;29;20475;-64
2022/04/02 07:14:58;;;;;;;6.88;3.38;;;;;;;0.58;67.99;98122.44;4934856;29;20834;-64
2022/04/02 07:17:27;;;;;;;6.03;3.25;;;;;;;0.54;68.23;98109.69;4935799;29;20103;-64
2022/04/02 07:19:57;;;;;;;15.32;4.43;;;;;;;0.52;67.77;98118.19;4949581;29;20134;-63
2022/04/02 07:22:26;;;;;;;7.55;3.33;;;;;;;0.61;68.20;98104.59;4935078;29;20075;-64
2022/04/02 07:24:55;;;;;;;6.55;3.38;;;;;;;0.64;67.96;98104.81;4934045;29;20151;-64
2022/04/02 07:27:32;;;;;;;7.32;3.53;;;;;;;0.77;67.47;98109.47;4935540;29;20589;-64
2022/04/02 07:29:58;;;;;;;7.00;3.58;;;;;;;1.01;67.24;98121.00;4934925;29;20100;-64
2022/04/02 07:32:26;;;;;;;7.97;3.10;;;;;;;1.13;66.76;98118.56;4935771;29;20163;-64
2022/04/02 07:34:52;;;;;;;8.65;4.57;;;;;;;1.09;66.89;98117.56;4935357;29;20052;-64
2022/04/02 07:37:19;;;;;;;20.30;8.05;;;;;;;1.26;66.34;98111.47;4934164;29;20055;-64
2022/04/02 07:39:55;;;;;;;10.32;4.30;;;;;;;1.36;65.76;98106.56;4949206;29;20048;-65
2022/04/02 07:42:26;;;;;;;6.57;3.20;;;;;;;1.44;65.43;98103.09;4935750;29;20063;-64
2022/04/02 07:45:01;;;;;;;6.38;3.28;;;;;;;1.51;65.77;98102.69;4934646;29;20055;-65
2022/04/02 07:47:35;;;;;;;8.75;3.67;;;;;;;1.60;65.40;98101.63;4933944;29;20064;-63
2022/04/02 07:50:08;;;;;;;11.70;3.85;;;;;;;1.70;64.92;98104.13;4934330;29;20086;-63
2022/04/02 07:52:39;;;;;;;6.28;4.50;;;;;;;1.61;65.29;98100.53;4935230;29;20098;-64
2022/04/02 07:55:08;;;;;;;6.80;3.88;;;;;;;1.61;65.26;98103.25;4933279;29;20057;-63
2022/04/02 07:57:41;;;;;;;7.50;3.65;;;;;;;1.62;65.18;98093.91;4933859;29;20095;-64
2022/04/02 08:00:15;;;;;;;8.75;3.92;;;;;;;1.52;65.24;98094.16;4934624;29;20083;-64
2022/04/02 08:02:45;;;;;;;9.95;4.32;;;;;;;1.62;65.23;98099.38;4935344;29;20051;-64
2022/04/02 08:05:14;;;;;;;8.20;3.92;;;;;;;1.62;65.31;98093.91;4934279;29;20571;-64
2022/04/02 08:07:45;;;;;;;11.43;3.67;;;;;;;1.69;65.08;98077.84;4935301;29;20055;-64
2022/04/02 08:10:13;;;;;;;6.03;3.20;;;;;;;1.89;64.85;98079.25;4934041;29;20047;-66
2022/04/02 08:12:41;;;;;;;6.03;3.33;;;;;;;1.88;64.96;98081.22;4935958;29;20059;-64
2022/04/02 08:15:24;;;;;;;7.60;3.53;;;;;;;1.86;64.56;98067.00;4934113;29;20052;-66
2022/04/02 08:17:54;;;;;;;8.35;3.72;;;;;;;2.00;64.31;98055.97;4935018;29;20079;-64
2022/04/02 08:20:22;;;;;;;;;;;;;;;2.02;64.55;98050.16;4937988;29;20055;-64
2022/04/02 08:22:50;;;;;;;5.43;3.65;;;;;;;2.12;64.43;98049.88;4933873;29;19966;-63
2022/04/02 08:25:18;;;;;;;5.22;3.20;;;;;;;2.13;63.76;98044.09;4933703;29;20411;-63
2022/04/02 08:28:04;;;;;;;7.93;3.67;;;;;;;2.07;63.61;98055.53;4934057;29;20136;-64
2022/04/02 08:30:34;;;;;;;6.22;3.28;;;;;;;1.90;64.38;98046.06;4934991;29;20560;-62
2022/04/02 08:33:01;;;;;;;14.10;4.47;;;;;;;1.90;63.98;98043.31;4933973;29;20410;-63
2022/04/02 08:35:48;;;;;;;6.85;3.60;;;;;;;1.86;64.33;98049.72;4934773;29;20411;-62
2022/04/02 08:38:27;;;;;;;10.63;3.28;;;;;;;1.97;64.47;98042.88;4912674;29;20557;-63
2022/04/02 08:41:12;;;;;;;7.85;3.30;;;;;;;2.06;63.92;98037.44;4934382;29;20471;-63
2022/04/02 08:44:07;;;;;;;11.75;3.75;;;;;;;2.17;63.78;98019.59;4933757;29;20456;-62
2022/04/02 08:46:56;;;;;;;5.90;3.53;;;;;;;2.24;63.48;98008.97;4933281;29;20051;-62
2022/04/02 08:49:46;;;;;;;7.72;3.83;;;;;;;2.10;64.26;98005.53;4933194;29;20130;-62
2022/04/02 08:52:13;;;;;;;7.82;4.05;;;;;;;2.11;64.11;98009.88;4934044;29;20090;-62
2022/04/02 08:55:08;;;;;;;6.15;3.00;;;;;;;2.14;63.91;98003.78;4934275;29;20527;-62
2022/04/02 08:57:53;;;;;;;6.03;3.20;;;;;;;2.01;64.01;98012.91;4934924;29;20052;-62
2022/04/02 09:00:25;;;;;;;7.05;3.72;;;;;;;1.92;65.14;98005.44;4933429;29;20047;-62
2022/04/02 09:02:52;;;;;;;18.15;7.63;;;;;;;2.08;64.42;98002.28;4934593;29;20102;-64
2022/04/02 09:05:32;;;;;;;8.02;4.53;;;;;;;2.08;64.34;97974.88;4933096;29;20062;-62
2022/04/02 09:08:12;;;;;;;8.23;3.63;;;;;;;2.00;64.26;97975.63;4942218;29;20055;-63
2022/04/02 09:10:53;;;;;;;4.55;2.65;;;;;;;1.80;64.77;97964.09;4933003;29;20044;-64
2022/04/02 09:14:01;;;;;;;11.45;3.58;;;;;;;1.84;64.72;97969.75;4933457;29;20048;-64
2022/04/02 09:16:38;;;;;;;6.30;3.40;;;;;;;1.81;65.37;97968.44;4932762;29;20075;-64
2022/04/02 09:19:30;;;;;;;6.68;3.05;;;;;;;1.79;65.10;97965.22;4932014;29;20372;-64
2022/04/02 09:22:22;;;;;;;6.05;3.17;;;;;;;1.74;65.53;97973.56;4933242;29;20048;-63
2022/04/02 09:25:20;;;;;;;5.97;2.78;;;;;;;1.67;65.53;97964.16;4927996;29;20110;-64
2022/04/02 09:27:46;;;;;;;5.95;3.15;;;;;;;1.58;65.50;97961.38;4935188;29;20044;-64
2022/04/02 09:30:22;;;;;;;5.70;3.60;;;;;;;1.58;65.44;97966.03;4934043;29;20040;-64
2022/04/02 09:33:07;;;;;;;7.65;3.45;;;;;;;1.68;65.08;97950.16;4937990;29;20048;-65
2022/04/02 09:35:50;;;;;;;9.25;3.92;;;;;;;1.83;65.30;97940.72;4934900;29;20060;-64
2022/04/02 09:38:51;;;;;;;6.22;3.30;;;;;;;1.85;65.08;97949.44;4937269;29;20052;-64
2022/04/02 09:41:45;;;;;;;9.05;4.85;;;;;;;1.76;65.60;97946.66;4938377;29;20602;-64
2022/04/02 09:44:33;;;;;;;6.38;3.55;;;;;;;1.83;65.13;97936.03;4935871;29;20135;-64
2022/04/02 09:47:05;;;;;;;9.15;3.10;;;;;;;1.98;64.87;97937.56;4936846;29;20055;-64
2022/04/02 09:49:41;;;;;;;7.50;3.45;;;;;;;2.05;65.11;97926.94;4937433;29;20471;-63
2022/04/02 09:52:08;;;;;;;5.20;3.20;;;;;;;1.97;64.81;97918.66;4936286;29;20480;-66
2022/04/02 09:54:47;;;;;;;5.90;3.50;;;;;;;1.93;65.00;97908.34;4937788;29;20553;-64
2022/04/02 09:57:14;;;;;;;7.85;3.28;;;;;;;2.09;65.08;97908.72;4937084;29;20060;-63
2022/04/02 09:59:47;;;;;;;7.57;2.97;;;;;;;2.17;64.24;97905.22;4937926;29;20055;-66
2022/04/02 10:02:34;;;;;;;4.82;2.97;;;;;;;2.03;64.98;97901.78;4936425;29;20047;-64
2022/04/02 10:05:07;;;;;;;4.97;3.05;;;;;;;1.93;64.82;97897.38;4936854;29;20056;-64
2022/04/02 10:07:46;;;;;;;5.05;2.80;;;;;;;1.92;64.82;97909.47;4936390;29;20063;-64
2022/04/02 10:10:15;;;;;;;6.97;2.65;;;;;;;1.87;65.47;97893.16;4936529;29;20050;-64
2022/04/02 10:12:47;;;;;;;6.07;3.55;;;;;;;1.84;65.16;97891.03;4937238;29;20051;-64
2022/04/02 10:15:19;;;;;;;10.93;3.03;;;;;;;1.92;65.14;97888.69;4936241;29;20423;-63
2022/04/02 10:17:53;;;;;;;4.90;2.90;;;;;;;1.87;65.36;97909.59;4935966;29;20077;-64
2022/04/02 10:20:24;;;;;;;4.55;2.78;;;;;;;1.81;65.19;97897.16;4936044;29;20146;-64
2022/04/02 10:23:18;;;;;;;5.18;3.13;;;;;;;1.75;65.25;97889.41;4935141;29;20044;-63
2022/04/02 10:26:07;;;;;;;4.80;3.13;;;;;;;1.73;65.20;97891.66;4935703;29;20144;-64
2022/04/02 10:28:52;;;;;;;5.53;3.47;;;;;;;1.79;65.12;97898.63;4935851;29;20162;-64
2022/04/02 10:31:49;;;;;;;5.20;2.97;;;;;;;1.73;65.21;97881.50;4951560;29;20059;-64
2022/04/02 10:34:25;;;;;;;11.68;2.97;;;;;;;1.70;65.83;97867.63;4933172;29;20651;-64
2022/04/02 10:37:05;;;;;;;4.40;2.63;;;;;;;1.61;66.18;97873.06;4936114;29;20122;-64
2022/04/02 10:39:36;;;;;;;5.80;3.33;;;;;;;1.60;66.17;97874.19;4936794;29;20059;-63
2022/04/02 10:42:07;;;;;;;4.97;2.53;;;;;;;1.65;66.04;97873.22;4935407;29;20051;-63
2022/04/02 10:44:56;;;;;;;5.43;2.85;;;;;;;1.64;65.86;97871.63;4936963;29;20059;-64
2022/04/02 10:47:27;;;;;;;6.72;3.30;;;;;;;1.60;66.02;97871.44;4935747;29;20054;-63
2022/04/02 10:50:02;;;;;;;7.70;3.10;;;;;;;1.59;66.45;97863.53;4936262;29;20139;-63
2022/04/02 10:52:31;;;;;;;4.20;2.72;;;;;;;1.61;65.93;97853.88;4934499;29;20055;-63
2022/04/02 10:54:58;;;;;;;3.80;2.40;;;;;;;1.69;65.71;97853.09;4936385;29;20512;-64
2022/04/02 10:57:29;;;;;;;5.05;2.70;;;;;;;1.71;65.74;97850.03;4935850;29;20521;-64
2022/04/02 11:00:03;;;;;;;3.78;2.53;;;;;;;1.66;65.94;97847.47;4936253;29;20068;-61
2022/04/02 11:02:41;;;;;;;4.47;2.92;;;;;;;1.64;66.54;97849.69;4935386;29;20567;-64
2022/04/02 11:05:10;;;;;;;5.93;2.60;;;;;;;1.65;66.43;97849.38;4935920;29;20463;-61
2022/04/02 11:07:43;;;;;;;4.57;2.63;;;;;;;1.70;66.07;97864.88;4935299;29;20102;-62
2022/04/02 11:10:21;;;;;;;6.10;3.13;;;;;;;1.61;66.47;97867.59;4935826;29;20047;-62
2022/04/02 11:12:59;;;;;;;5.50;3.55;;;;;;;1.50;66.57;97871.72;4936969;29;20081;-63
2022/04/02 11:15:27;;;;;;;7.22;3.13;;;;;;;1.51;66.92;97878.81;4934951;29;20056;-62
2022/04/02 11:18:01;;;;;;;4.88;2.95;;;;;;;1.63;66.71;97897.41;4936140;29;20060;-62
2022/04/02 11:20:33;;;;;;;6.38;3.53;;;;;;;1.60;66.33;97901.56;4934937;29;20048;-62
2022/04/02 11:23:17;;;;;;;4.40;2.92;;;;;;;1.46;67.26;97900.88;4936204;29;20047;-62
2022/04/02 11:25:50;;;;;;;4.28;2.90;;;;;;;1.42;67.05;97891.66;4934992;29;20048;-62
2022/04/02 11:28:20;;;;;;;7.22;3.13;;;;;;;1.30;67.64;97894.16;4935917;29;20075;-62
2022/04/02 11:31:03;;;;;;;4.93;3.10;;;;;;;1.31;67.95;97886.75;4938226;29;20050;-63
2022/04/02 11:33:48;;;;;;;8.32;3.33;;;;;;;1.33;67.84;97896.28;4935675;29;20047;-61
2022/04/02 11:36:15;;;;;;;4.85;2.97;;;;;;;1.11;69.25;97899.03;4936243;29;20118;-61
2022/04/02 11:39:00;;;;;;;7.45;3.58;;;;;;;0.98;69.18;97888.16;4934422;29;20471;-62
2022/04/02 11:41:30;;;;;;;7.20;3.33;;;;;;;0.81;70.05;97891.56;4936298;29;20500;-62
2022/04/02 11:44:07;;;;;;;7.90;3.92;;;;;;;0.78;70.28;97897.66;4935409;29;20083;-62
2022/04/02 11:46:55;;;;;;;5.72;3.78;;;;;;;0.83;70.41;97892.03;4935413;29;20091;-62
2022/04/02 11:49:39;;;;;;;6.30;3.33;;;;;;;0.85;70.54;97889.81;4934729;29;20071;-63
2022/04/02 11:52:12;;;;;;;5.93;3.30;;;;;;;0.69;71.19;97891.31;4934086;29;20523;-64
2022/04/02 11:54:48;;;;;;;6.28;3.40;;;;;;;0.57;71.49;97874.63;4931465;29;20078;-64
2022/04/02 11:57:17;;;;;;;5.35;3.25;;;;;;;0.53;71.81;97851.72;4931199;29;20051;-64
2022/04/02 11:59:53;;;;;;;8.50;3.85;;;;;;;0.61;71.53;97837.31;4934331;29;20099;-64
2022/04/02 12:02:43;;;;;;;8.88;3.33;;;;;;;0.67;71.82;97830.59;4934435;29;20483;-64
2022/04/02 12:05:13;;;;;;;6.40;3.75;;;;;;;0.67;71.89;97825.13;4935675;29;20056;-63